sensor_id;sensor_type;location;lat;lon;timestamp;P1;durP1;ratioP1;P2;durP2;ratioP2
12601;SDS011;30282;16.436;99.370;2023-04-24T00:01:39;62.13;;;43.90;;
12601;SDS011;30282;16.436;99.370;2023-04-24T00:04:08;62.50;;;47.40;;
12601;SDS011;30282;16.436;99.370;2023-04-24T00:06:39;66.03;;;48.07;;
12601;SDS011;30282;16.436;99.370;2023-04-24T00:09:09;61.80;;;47.87;;
12601;SDS011;30282;16.436;99.370;2023-04-24T00:11:39;77.53;;;49.40;;
12601;SDS011;30282;16.436;99.370;2023-04-24T00:14:09;78.87;;;52.00;;
12601;SDS011;30282;16.436;99.370;2023-04-24T00:16:38;92.33;;;50.67;;
12601;SDS011;30282;16.436;99.370;2023-04-24T00:19:07;74.30;;;49.30;;
12601;SDS011;30282;16.436;99.370;2023-04-24T00:21:37;70.27;;;47.77;;
12601;SDS011;30282;16.436;99.370;2023-04-24T00:24:07;72.03;;;48.97;;
12601;SDS011;30282;16.436;99.370;2023-04-24T00:26:36;60.70;;;47.00;;
12601;SDS011;30282;16.436;99.370;2023-04-24T00:29:07;61.30;;;49.83;;
12601;SDS011;30282;16.436;99.370;2023-04-24T00:31:36;65.13;;;49.73;;
12601;SDS011;30282;16.436;99.370;2023-04-24T00:34:05;73.63;;;51.90;;
12601;SDS011;30282;16.436;99.370;2023-04-24T00:36:34;71.27;;;52.70;;
12601;SDS011;30282;16.436;99.370;2023-04-24T00:39:04;62.23;;;45.70;;
12601;SDS011;30282;16.436;99.370;2023-04-24T00:41:34;67.33;;;52.10;;
12601;SDS011;30282;16.436;99.370;2023-04-24T00:44:05;71.40;;;51.37;;
12601;SDS011;30282;16.436;99.370;2023-04-24T00:46:34;73.43;;;50.17;;
12601;SDS011;30282;16.436;99.370;2023-04-24T00:49:04;75.10;;;54.93;;
12601;SDS011;30282;16.436;99.370;2023-04-24T00:51:34;66.93;;;49.07;;
12601;SDS011;30282;16.436;99.370;2023-04-24T00:54:03;70.97;;;53.20;;
12601;SDS011;30282;16.436;99.370;2023-04-24T00:56:32;69.10;;;51.07;;
12601;SDS011;30282;16.436;99.370;2023-04-24T00:59:02;70.27;;;51.87;;
12601;SDS011;30282;16.436;99.370;2023-04-24T01:01:34;73.87;;;51.17;;
12601;SDS011;30282;16.436;99.370;2023-04-24T01:04:03;72.00;;;48.33;;
12601;SDS011;30282;16.436;99.370;2023-04-24T01:06:33;72.20;;;48.57;;
12601;SDS011;30282;16.436;99.370;2023-04-24T01:09:02;64.83;;;46.07;;
12601;SDS011;30282;16.436;99.370;2023-04-24T01:11:33;77.50;;;46.20;;
12601;SDS011;30282;16.436;99.370;2023-04-24T01:14:02;76.13;;;49.43;;
12601;SDS011;30282;16.436;99.370;2023-04-24T01:16:33;61.23;;;47.87;;
12601;SDS011;30282;16.436;99.370;2023-04-24T01:19:07;122.40;;;47.30;;
12601;SDS011;30282;16.436;99.370;2023-04-24T01:21:37;77.83;;;49.70;;
12601;SDS011;30282;16.436;99.370;2023-04-24T01:24:09;70.57;;;46.87;;
12601;SDS011;30282;16.436;99.370;2023-04-24T01:26:38;58.20;;;43.03;;
12601;SDS011;30282;16.436;99.370;2023-04-24T01:29:08;56.87;;;42.60;;
12601;SDS011;30282;16.436;99.370;2023-04-24T01:31:37;57.23;;;41.20;;
12601;SDS011;30282;16.436;99.370;2023-04-24T01:34:07;68.97;;;44.43;;
12601;SDS011;30282;16.436;99.370;2023-04-24T01:36:36;64.63;;;43.23;;
12601;SDS011;30282;16.436;99.370;2023-04-24T01:39:06;63.73;;;44.70;;
12601;SDS011;30282;16.436;99.370;2023-04-24T01:41:37;52.60;;;42.83;;
12601;SDS011;30282;16.436;99.370;2023-04-24T01:44:06;66.27;;;45.80;;
12601;SDS011;30282;16.436;99.370;2023-04-24T01:46:36;63.57;;;44.13;;
12601;SDS011;30282;16.436;99.370;2023-04-24T01:49:05;61.00;;;44.03;;
12601;SDS011;30282;16.436;99.370;2023-04-24T01:51:34;59.00;;;42.97;;
12601;SDS011;30282;16.436;99.370;2023-04-24T01:54:04;52.40;;;40.90;;
12601;SDS011;30282;16.436;99.370;2023-04-24T01:56:35;54.63;;;39.43;;
12601;SDS011;30282;16.436;99.370;2023-04-24T01:59:09;59.40;;;41.10;;
12601;SDS011;30282;16.436;99.370;2023-04-24T02:01:39;57.97;;;38.37;;
12601;SDS011;30282;16.436;99.370;2023-04-24T02:04:08;59.83;;;38.00;;
12601;SDS011;30282;16.436;99.370;2023-04-24T02:06:37;50.27;;;36.97;;
12601;SDS011;30282;16.436;99.370;2023-04-24T02:09:06;50.60;;;38.30;;
12601;SDS011;30282;16.436;99.370;2023-04-24T02:11:39;49.90;;;36.33;;
12601;SDS011;30282;16.436;99.370;2023-04-24T02:14:08;49.97;;;36.73;;
12601;SDS011;30282;16.436;99.370;2023-04-24T02:16:38;44.70;;;35.63;;
12601;SDS011;30282;16.436;99.370;2023-04-24T02:19:07;51.20;;;35.67;;
12601;SDS011;30282;16.436;99.370;2023-04-24T02:21:36;55.23;;;33.47;;
12601;SDS011;30282;16.436;99.370;2023-04-24T02:24:05;53.63;;;36.40;;
12601;SDS011;30282;16.436;99.370;2023-04-24T02:26:34;50.63;;;38.10;;
12601;SDS011;30282;16.436;99.370;2023-04-24T02:29:05;44.33;;;34.40;;
12601;SDS011;30282;16.436;99.370;2023-04-24T02:31:34;47.60;;;37.30;;
12601;SDS011;30282;16.436;99.370;2023-04-24T02:34:04;50.50;;;40.27;;
12601;SDS011;30282;16.436;99.370;2023-04-24T02:36:33;50.40;;;36.43;;
12601;SDS011;30282;16.436;99.370;2023-04-24T02:39:02;46.73;;;37.50;;
12601;SDS011;30282;16.436;99.370;2023-04-24T02:41:31;67.27;;;40.90;;
12601;SDS011;30282;16.436;99.370;2023-04-24T02:44:01;47.17;;;37.03;;
12601;SDS011;30282;16.436;99.370;2023-04-24T02:46:32;59.27;;;38.83;;
12601;SDS011;30282;16.436;99.370;2023-04-24T02:49:01;54.00;;;37.83;;
12601;SDS011;30282;16.436;99.370;2023-04-24T02:51:30;53.80;;;39.83;;
12601;SDS011;30282;16.436;99.370;2023-04-24T02:53:59;54.53;;;39.00;;
12601;SDS011;30282;16.436;99.370;2023-04-24T02:56:28;49.07;;;38.90;;
12601;SDS011;30282;16.436;99.370;2023-04-24T02:58:57;56.67;;;40.77;;
12601;SDS011;30282;16.436;99.370;2023-04-24T03:01:27;47.00;;;38.03;;
12601;SDS011;30282;16.436;99.370;2023-04-24T03:03:58;53.30;;;41.07;;
12601;SDS011;30282;16.436;99.370;2023-04-24T03:06:27;55.27;;;42.20;;
12601;SDS011;30282;16.436;99.370;2023-04-24T03:08:57;53.47;;;39.47;;
12601;SDS011;30282;16.436;99.370;2023-04-24T03:11:26;55.87;;;40.10;;
12601;SDS011;30282;16.436;99.370;2023-04-24T03:13:55;47.00;;;38.20;;
12601;SDS011;30282;16.436;99.370;2023-04-24T03:16:24;44.30;;;36.63;;
12601;SDS011;30282;16.436;99.370;2023-04-24T03:18:53;51.40;;;38.00;;
12601;SDS011;30282;16.436;99.370;2023-04-24T03:21:24;53.47;;;39.33;;
12601;SDS011;30282;16.436;99.370;2023-04-24T03:23:53;50.10;;;39.53;;
12601;SDS011;30282;16.436;99.370;2023-04-24T03:26:23;48.33;;;38.33;;
12601;SDS011;30282;16.436;99.370;2023-04-24T03:28:52;50.60;;;37.30;;
12601;SDS011;30282;16.436;99.370;2023-04-24T03:31:22;50.00;;;38.77;;
12601;SDS011;30282;16.436;99.370;2023-04-24T03:33:51;44.53;;;35.53;;
12601;SDS011;30282;16.436;99.370;2023-04-24T03:36:21;45.57;;;36.73;;
12601;SDS011;30282;16.436;99.370;2023-04-24T03:38:51;51.27;;;39.90;;
12601;SDS011;30282;16.436;99.370;2023-04-24T03:41:21;53.20;;;40.83;;
12601;SDS011;30282;16.436;99.370;2023-04-24T03:43:50;56.77;;;39.63;;
12601;SDS011;30282;16.436;99.370;2023-04-24T03:46:22;48.90;;;38.33;;
12601;SDS011;30282;16.436;99.370;2023-04-24T03:48:51;48.70;;;40.77;;
12601;SDS011;30282;16.436;99.370;2023-04-24T03:51:20;47.70;;;39.60;;
12601;SDS011;30282;16.436;99.370;2023-04-24T03:53:51;52.87;;;40.90;;
12601;SDS011;30282;16.436;99.370;2023-04-24T03:56:20;47.97;;;41.27;;
12601;SDS011;30282;16.436;99.370;2023-04-24T03:58:49;52.43;;;41.67;;
12601;SDS011;30282;16.436;99.370;2023-04-24T04:01:19;59.63;;;45.03;;
12601;SDS011;30282;16.436;99.370;2023-04-24T04:03:48;54.90;;;43.27;;
12601;SDS011;30282;16.436;99.370;2023-04-24T04:06:17;54.40;;;41.93;;
12601;SDS011;30282;16.436;99.370;2023-04-24T04:08:47;53.67;;;43.50;;
12601;SDS011;30282;16.436;99.370;2023-04-24T04:11:18;48.50;;;42.63;;
12601;SDS011;30282;16.436;99.370;2023-04-24T04:13:47;55.00;;;44.37;;
12601;SDS011;30282;16.436;99.370;2023-04-24T04:16:16;55.50;;;45.27;;
12601;SDS011;30282;16.436;99.370;2023-04-24T04:18:45;63.73;;;45.17;;
12601;SDS011;30282;16.436;99.370;2023-04-24T04:21:14;50.23;;;39.83;;
12601;SDS011;30282;16.436;99.370;2023-04-24T04:23:44;62.20;;;41.77;;
12601;SDS011;30282;16.436;99.370;2023-04-24T04:26:13;58.40;;;46.40;;
12601;SDS011;30282;16.436;99.370;2023-04-24T04:28:46;62.33;;;44.87;;
12601;SDS011;30282;16.436;99.370;2023-04-24T04:31:15;58.10;;;44.07;;
12601;SDS011;30282;16.436;99.370;2023-04-24T04:33:45;64.40;;;42.73;;
12601;SDS011;30282;16.436;99.370;2023-04-24T04:36:14;57.67;;;42.10;;
12601;SDS011;30282;16.436;99.370;2023-04-24T04:38:44;44.30;;;38.80;;
12601;SDS011;30282;16.436;99.370;2023-04-24T04:41:14;56.23;;;43.47;;
12601;SDS011;30282;16.436;99.370;2023-04-24T04:43:43;47.33;;;40.17;;
12601;SDS011;30282;16.436;99.370;2023-04-24T04:46:15;46.87;;;40.80;;
12601;SDS011;30282;16.436;99.370;2023-04-24T04:48:44;54.70;;;44.43;;
12601;SDS011;30282;16.436;99.370;2023-04-24T04:54:45;57.20;;;41.60;;
12601;SDS011;30282;16.436;99.370;2023-04-24T04:57:14;46.90;;;41.83;;
12601;SDS011;30282;16.436;99.370;2023-04-24T04:59:45;61.37;;;44.43;;
12601;SDS011;30282;16.436;99.370;2023-04-24T05:02:14;51.00;;;41.77;;
12601;SDS011;30282;16.436;99.370;2023-04-24T05:04:43;51.40;;;42.20;;
12601;SDS011;30282;16.436;99.370;2023-04-24T05:07:13;45.77;;;40.77;;
12601;SDS011;30282;16.436;99.370;2023-04-24T05:09:42;59.60;;;42.73;;
12601;SDS011;30282;16.436;99.370;2023-04-24T05:12:11;60.43;;;41.53;;
12601;SDS011;30282;16.436;99.370;2023-04-24T05:14:40;58.90;;;44.30;;
12601;SDS011;30282;16.436;99.370;2023-04-24T05:17:11;47.80;;;40.80;;
12601;SDS011;30282;16.436;99.370;2023-04-24T05:19:41;55.67;;;41.83;;
12601;SDS011;30282;16.436;99.370;2023-04-24T05:22:10;44.90;;;40.10;;
12601;SDS011;30282;16.436;99.370;2023-04-24T05:24:42;54.00;;;44.60;;
12601;SDS011;30282;16.436;99.370;2023-04-24T05:27:11;47.60;;;42.27;;
12601;SDS011;30282;16.436;99.370;2023-04-24T05:29:40;54.83;;;43.10;;
12601;SDS011;30282;16.436;99.370;2023-04-24T05:32:11;46.90;;;40.03;;
12601;SDS011;30282;16.436;99.370;2023-04-24T05:34:40;44.47;;;37.53;;
12601;SDS011;30282;16.436;99.370;2023-04-24T05:37:10;50.87;;;40.33;;
12601;SDS011;30282;16.436;99.370;2023-04-24T05:39:39;51.60;;;40.17;;
12601;SDS011;30282;16.436;99.370;2023-04-24T05:42:08;56.67;;;40.43;;
12601;SDS011;30282;16.436;99.370;2023-04-24T05:44:37;50.80;;;41.60;;
12601;SDS011;30282;16.436;99.370;2023-04-24T05:47:06;47.00;;;40.07;;
12601;SDS011;30282;16.436;99.370;2023-04-24T05:49:37;50.03;;;39.07;;
12601;SDS011;30282;16.436;99.370;2023-04-24T05:52:06;51.93;;;40.70;;
12601;SDS011;30282;16.436;99.370;2023-04-24T05:54:36;47.53;;;40.07;;
12601;SDS011;30282;16.436;99.370;2023-04-24T05:57:05;48.80;;;39.00;;
12601;SDS011;30282;16.436;99.370;2023-04-24T05:59:35;50.80;;;40.90;;
12601;SDS011;30282;16.436;99.370;2023-04-24T06:02:05;50.47;;;36.83;;
12601;SDS011;30282;16.436;99.370;2023-04-24T06:04:34;45.13;;;37.30;;
12601;SDS011;30282;16.436;99.370;2023-04-24T06:07:05;40.73;;;36.30;;
12601;SDS011;30282;16.436;99.370;2023-04-24T06:09:35;48.20;;;39.60;;
12601;SDS011;30282;16.436;99.370;2023-04-24T06:12:04;51.80;;;40.13;;
12601;SDS011;30282;16.436;99.370;2023-04-24T06:14:36;49.77;;;39.97;;
12601;SDS011;30282;16.436;99.370;2023-04-24T06:17:05;46.10;;;38.57;;
12601;SDS011;30282;16.436;99.370;2023-04-24T06:19:34;59.27;;;39.17;;
12601;SDS011;30282;16.436;99.370;2023-04-24T06:22:06;45.20;;;37.37;;
12601;SDS011;30282;16.436;99.370;2023-04-24T06:24:35;43.03;;;37.00;;
12601;SDS011;30282;16.436;99.370;2023-04-24T06:27:04;49.33;;;38.73;;
12601;SDS011;30282;16.436;99.370;2023-04-24T06:29:34;47.00;;;38.30;;
12601;SDS011;30282;16.436;99.370;2023-04-24T06:32:03;51.40;;;38.47;;
12601;SDS011;30282;16.436;99.370;2023-04-24T06:34:33;52.93;;;36.57;;
12601;SDS011;30282;16.436;99.370;2023-04-24T06:37:04;48.80;;;36.20;;
12601;SDS011;30282;16.436;99.370;2023-04-24T06:39:33;44.87;;;37.43;;
12601;SDS011;30282;16.436;99.370;2023-04-24T06:42:03;50.40;;;37.80;;
12601;SDS011;30282;16.436;99.370;2023-04-24T06:44:32;45.90;;;36.87;;
12601;SDS011;30282;16.436;99.370;2023-04-24T06:47:06;50.43;;;37.03;;
12601;SDS011;30282;16.436;99.370;2023-04-24T06:49:35;42.47;;;37.97;;
12601;SDS011;30282;16.436;99.370;2023-04-24T06:52:09;46.90;;;36.97;;
12601;SDS011;30282;16.436;99.370;2023-04-24T06:54:38;50.03;;;35.00;;
12601;SDS011;30282;16.436;99.370;2023-04-24T06:57:10;42.70;;;36.93;;
12601;SDS011;30282;16.436;99.370;2023-04-24T06:59:39;52.20;;;36.20;;
12601;SDS011;30282;16.436;99.370;2023-04-24T07:02:09;48.30;;;38.00;;
12601;SDS011;30282;16.436;99.370;2023-04-24T07:04:38;38.83;;;34.90;;
12601;SDS011;30282;16.436;99.370;2023-04-24T07:07:09;56.83;;;35.27;;
12601;SDS011;30282;16.436;99.370;2023-04-24T07:09:40;45.03;;;35.60;;
12601;SDS011;30282;16.436;99.370;2023-04-24T07:12:10;50.50;;;36.93;;
12601;SDS011;30282;16.436;99.370;2023-04-24T07:14:39;46.23;;;36.13;;
12601;SDS011;30282;16.436;99.370;2023-04-24T07:17:08;53.27;;;36.30;;
12601;SDS011;30282;16.436;99.370;2023-04-24T07:19:38;48.63;;;35.13;;
12601;SDS011;30282;16.436;99.370;2023-04-24T07:22:09;38.80;;;34.60;;
12601;SDS011;30282;16.436;99.370;2023-04-24T07:24:42;50.73;;;35.83;;
12601;SDS011;30282;16.436;99.370;2023-04-24T07:27:11;42.17;;;34.77;;
12601;SDS011;30282;16.436;99.370;2023-04-24T07:29:41;42.30;;;34.47;;
12601;SDS011;30282;16.436;99.370;2023-04-24T07:32:10;39.03;;;34.83;;
12601;SDS011;30282;16.436;99.370;2023-04-24T07:34:39;47.67;;;35.07;;
12601;SDS011;30282;16.436;99.370;2023-04-24T07:37:10;50.10;;;32.53;;
12601;SDS011;30282;16.436;99.370;2023-04-24T07:39:40;42.03;;;34.60;;
12601;SDS011;30282;16.436;99.370;2023-04-24T07:42:09;41.80;;;33.43;;
12601;SDS011;30282;16.436;99.370;2023-04-24T07:44:38;48.00;;;33.03;;
12601;SDS011;30282;16.436;99.370;2023-04-24T07:47:08;42.73;;;31.90;;
12601;SDS011;30282;16.436;99.370;2023-04-24T07:49:37;37.77;;;33.67;;
12601;SDS011;30282;16.436;99.370;2023-04-24T07:52:06;37.47;;;33.30;;
12601;SDS011;30282;16.436;99.370;2023-04-24T07:54:37;41.10;;;34.40;;
12601;SDS011;30282;16.436;99.370;2023-04-24T07:57:06;42.77;;;34.00;;
12601;SDS011;30282;16.436;99.370;2023-04-24T07:59:38;37.80;;;31.80;;
12601;SDS011;30282;16.436;99.370;2023-04-24T08:02:07;36.43;;;32.53;;
12601;SDS011;30282;16.436;99.370;2023-04-24T08:04:39;44.10;;;33.50;;
12601;SDS011;30282;16.436;99.370;2023-04-24T08:07:14;36.53;;;32.60;;
12601;SDS011;30282;16.436;99.370;2023-04-24T08:09:48;38.10;;;33.80;;
12601;SDS011;30282;16.436;99.370;2023-04-24T08:12:17;42.27;;;33.03;;
12601;SDS011;30282;16.436;99.370;2023-04-24T08:14:46;51.50;;;33.30;;
12601;SDS011;30282;16.436;99.370;2023-04-24T08:17:16;58.87;;;33.63;;
12601;SDS011;30282;16.436;99.370;2023-04-24T08:19:45;39.37;;;32.73;;
12601;SDS011;30282;16.436;99.370;2023-04-24T08:22:16;36.03;;;31.40;;
12601;SDS011;30282;16.436;99.370;2023-04-24T08:24:49;35.43;;;30.60;;
12601;SDS011;30282;16.436;99.370;2023-04-24T08:27:19;36.37;;;32.57;;
12601;SDS011;30282;16.436;99.370;2023-04-24T08:29:48;43.17;;;32.77;;
12601;SDS011;30282;16.436;99.370;2023-04-24T08:32:18;38.03;;;32.17;;
12601;SDS011;30282;16.436;99.370;2023-04-24T08:34:47;34.90;;;30.77;;
12601;SDS011;30282;16.436;99.370;2023-04-24T08:37:18;39.93;;;32.03;;
12601;SDS011;30282;16.436;99.370;2023-04-24T08:39:49;35.93;;;31.13;;
12601;SDS011;30282;16.436;99.370;2023-04-24T08:42:19;49.87;;;32.83;;
12601;SDS011;30282;16.436;99.370;2023-04-24T08:44:49;43.17;;;30.63;;
12601;SDS011;30282;16.436;99.370;2023-04-24T08:47:18;47.90;;;32.63;;
12601;SDS011;30282;16.436;99.370;2023-04-24T08:49:48;44.07;;;32.70;;
12601;SDS011;30282;16.436;99.370;2023-04-24T08:52:19;37.10;;;31.20;;
12601;SDS011;30282;16.436;99.370;2023-04-24T08:54:50;40.10;;;31.70;;
12601;SDS011;30282;16.436;99.370;2023-04-24T08:57:22;35.53;;;31.43;;
12601;SDS011;30282;16.436;99.370;2023-04-24T08:59:52;33.63;;;29.93;;
12601;SDS011;30282;16.436;99.370;2023-04-24T09:02:22;33.87;;;30.23;;
12601;SDS011;30282;16.436;99.370;2023-04-24T09:04:52;36.47;;;30.17;;
12601;SDS011;30282;16.436;99.370;2023-04-24T09:07:23;37.27;;;32.60;;
12601;SDS011;30282;16.436;99.370;2023-04-24T09:09:57;40.03;;;32.00;;
12601;SDS011;30282;16.436;99.370;2023-04-24T09:12:27;38.23;;;33.33;;
12601;SDS011;30282;16.436;99.370;2023-04-24T09:14:56;37.33;;;31.67;;
12601;SDS011;30282;16.436;99.370;2023-04-24T09:17:26;36.20;;;31.93;;
12601;SDS011;30282;16.436;99.370;2023-04-24T09:19:56;34.30;;;30.57;;
12601;SDS011;30282;16.436;99.370;2023-04-24T09:22:29;40.27;;;32.10;;
12601;SDS011;30282;16.436;99.370;2023-04-24T09:25:07;44.30;;;31.87;;
12601;SDS011;30282;16.436;99.370;2023-04-24T09:27:41;39.53;;;32.17;;
12601;SDS011;30282;16.436;99.370;2023-04-24T09:30:12;42.90;;;32.20;;
12601;SDS011;30282;16.436;99.370;2023-04-24T09:32:50;44.67;;;33.80;;
12601;SDS011;30282;16.436;99.370;2023-04-24T09:35:40;36.43;;;32.50;;
12601;SDS011;30282;16.436;99.370;2023-04-24T09:38:10;36.37;;;30.43;;
12601;SDS011;30282;16.436;99.370;2023-04-24T09:40:41;40.30;;;34.50;;
12601;SDS011;30282;16.436;99.370;2023-04-24T09:43:11;39.40;;;32.23;;
12601;SDS011;30282;16.436;99.370;2023-04-24T09:45:40;44.83;;;33.60;;
12601;SDS011;30282;16.436;99.370;2023-04-24T09:48:10;41.30;;;30.10;;
12601;SDS011;30282;16.436;99.370;2023-04-24T09:50:39;37.67;;;32.03;;
12601;SDS011;30282;16.436;99.370;2023-04-24T09:53:14;39.77;;;32.40;;
12601;SDS011;30282;16.436;99.370;2023-04-24T09:55:46;44.20;;;30.67;;
12601;SDS011;30282;16.436;99.370;2023-04-24T09:58:16;37.90;;;31.33;;
12601;SDS011;30282;16.436;99.370;2023-04-24T10:00:45;42.87;;;32.13;;
12601;SDS011;30282;16.436;99.370;2023-04-24T10:03:14;45.07;;;33.97;;
12601;SDS011;30282;16.436;99.370;2023-04-24T10:05:45;41.50;;;31.40;;
12601;SDS011;30282;16.436;99.370;2023-04-24T10:08:15;37.07;;;31.10;;
12601;SDS011;30282;16.436;99.370;2023-04-24T10:10:46;50.63;;;32.47;;
12601;SDS011;30282;16.436;99.370;2023-04-24T10:13:15;43.70;;;30.30;;
12601;SDS011;30282;16.436;99.370;2023-04-24T10:15:44;51.87;;;30.67;;
12601;SDS011;30282;16.436;99.370;2023-04-24T10:18:15;41.57;;;31.53;;
12601;SDS011;30282;16.436;99.370;2023-04-24T10:20:45;40.67;;;34.70;;
12601;SDS011;30282;16.436;99.370;2023-04-24T10:23:15;40.53;;;35.07;;
12601;SDS011;30282;16.436;99.370;2023-04-24T10:25:46;40.80;;;34.63;;
12601;SDS011;30282;16.436;99.370;2023-04-24T10:28:21;47.53;;;36.23;;
12601;SDS011;30282;16.436;99.370;2023-04-24T10:30:52;44.47;;;37.40;;
12601;SDS011;30282;16.436;99.370;2023-04-24T10:33:25;43.73;;;34.73;;
12601;SDS011;30282;16.436;99.370;2023-04-24T10:35:55;55.30;;;37.30;;
12601;SDS011;30282;16.436;99.370;2023-04-24T10:38:26;43.83;;;36.40;;
12601;SDS011;30282;16.436;99.370;2023-04-24T10:40:59;43.40;;;36.83;;
12601;SDS011;30282;16.436;99.370;2023-04-24T10:43:39;42.27;;;34.97;;
12601;SDS011;30282;16.436;99.370;2023-04-24T10:46:09;46.53;;;33.90;;
12601;SDS011;30282;16.436;99.370;2023-04-24T10:48:42;43.03;;;34.93;;
12601;SDS011;30282;16.436;99.370;2023-04-24T10:51:21;42.53;;;35.60;;
12601;SDS011;30282;16.436;99.370;2023-04-24T10:53:51;52.77;;;36.33;;
12601;SDS011;30282;16.436;99.370;2023-04-24T10:56:27;39.93;;;34.33;;
12601;SDS011;30282;16.436;99.370;2023-04-24T10:58:56;41.20;;;33.53;;
12601;SDS011;30282;16.436;99.370;2023-04-24T11:01:26;52.47;;;34.17;;
12601;SDS011;30282;16.436;99.370;2023-04-24T11:03:59;39.47;;;32.80;;
12601;SDS011;30282;16.436;99.370;2023-04-24T11:06:32;45.77;;;34.80;;
12601;SDS011;30282;16.436;99.370;2023-04-24T11:09:02;38.60;;;34.43;;
12601;SDS011;30282;16.436;99.370;2023-04-24T11:11:37;39.23;;;34.23;;
12601;SDS011;30282;16.436;99.370;2023-04-24T11:14:13;43.80;;;35.43;;
12601;SDS011;30282;16.436;99.370;2023-04-24T11:19:29;38.53;;;33.00;;
12601;SDS011;30282;16.436;99.370;2023-04-24T11:21:59;45.27;;;33.53;;
12601;SDS011;30282;16.436;99.370;2023-04-24T11:24:30;37.40;;;33.40;;
12601;SDS011;30282;16.436;99.370;2023-04-24T11:27:11;41.00;;;32.43;;
12601;SDS011;30282;16.436;99.370;2023-04-24T11:29:42;51.80;;;34.37;;
12601;SDS011;30282;16.436;99.370;2023-04-24T11:32:16;39.97;;;32.57;;
12601;SDS011;30282;16.436;99.370;2023-04-24T11:34:47;37.10;;;32.23;;
12601;SDS011;30282;16.436;99.370;2023-04-24T11:37:17;47.20;;;34.57;;
12601;SDS011;30282;16.436;99.370;2023-04-24T11:39:47;55.87;;;35.60;;
12601;SDS011;30282;16.436;99.370;2023-04-24T11:42:21;41.30;;;36.77;;
12601;SDS011;30282;16.436;99.370;2023-04-24T11:44:52;46.17;;;36.07;;
12601;SDS011;30282;16.436;99.370;2023-04-24T11:47:27;44.70;;;35.13;;
12601;SDS011;30282;16.436;99.370;2023-04-24T11:49:59;47.20;;;35.17;;
12601;SDS011;30282;16.436;99.370;2023-04-24T11:52:29;53.53;;;36.60;;
12601;SDS011;30282;16.436;99.370;2023-04-24T11:54:59;56.47;;;33.40;;
12601;SDS011;30282;16.436;99.370;2023-04-24T11:57:31;47.90;;;35.10;;
12601;SDS011;30282;16.436;99.370;2023-04-24T12:00:02;47.83;;;35.43;;
12601;SDS011;30282;16.436;99.370;2023-04-24T12:02:33;57.70;;;35.80;;
12601;SDS011;30282;16.436;99.370;2023-04-24T12:05:03;43.70;;;35.37;;
12601;SDS011;30282;16.436;99.370;2023-04-24T12:07:40;52.43;;;39.07;;
12601;SDS011;30282;16.436;99.370;2023-04-24T12:10:10;76.60;;;40.03;;
12601;SDS011;30282;16.436;99.370;2023-04-24T12:12:42;66.60;;;41.70;;
12601;SDS011;30282;16.436;99.370;2023-04-24T12:15:16;62.23;;;40.63;;
12601;SDS011;30282;16.436;99.370;2023-04-24T12:17:45;60.50;;;42.60;;
12601;SDS011;30282;16.436;99.370;2023-04-24T12:20:20;48.40;;;37.87;;
12601;SDS011;30282;16.436;99.370;2023-04-24T12:22:53;64.90;;;39.30;;
12601;SDS011;30282;16.436;99.370;2023-04-24T12:25:23;71.03;;;38.40;;
12601;SDS011;30282;16.436;99.370;2023-04-24T12:27:57;48.40;;;38.40;;
12601;SDS011;30282;16.436;99.370;2023-04-24T12:30:39;58.57;;;37.43;;
12601;SDS011;30282;16.436;99.370;2023-04-24T12:33:11;51.87;;;36.77;;
12601;SDS011;30282;16.436;99.370;2023-04-24T12:35:40;56.23;;;37.50;;
12601;SDS011;30282;16.436;99.370;2023-04-24T12:38:10;67.37;;;40.57;;
12601;SDS011;30282;16.436;99.370;2023-04-24T12:40:41;54.43;;;37.77;;
12601;SDS011;30282;16.436;99.370;2023-04-24T12:43:15;68.80;;;39.50;;
12601;SDS011;30282;16.436;99.370;2023-04-24T12:45:45;55.03;;;38.50;;
12601;SDS011;30282;16.436;99.370;2023-04-24T12:48:15;53.07;;;37.83;;
12601;SDS011;30282;16.436;99.370;2023-04-24T12:50:45;51.07;;;35.67;;
12601;SDS011;30282;16.436;99.370;2023-04-24T12:53:15;55.93;;;37.47;;
12601;SDS011;30282;16.436;99.370;2023-04-24T12:55:44;50.17;;;37.00;;
12601;SDS011;30282;16.436;99.370;2023-04-24T12:58:20;48.07;;;36.37;;
12601;SDS011;30282;16.436;99.370;2023-04-24T13:00:49;48.90;;;37.10;;
12601;SDS011;30282;16.436;99.370;2023-04-24T13:03:19;45.90;;;35.63;;
12601;SDS011;30282;16.436;99.370;2023-04-24T13:05:49;55.27;;;35.90;;
12601;SDS011;30282;16.436;99.370;2023-04-24T13:08:18;51.63;;;34.60;;
12601;SDS011;30282;16.436;99.370;2023-04-24T13:10:48;45.87;;;36.23;;
12601;SDS011;30282;16.436;99.370;2023-04-24T13:13:21;53.00;;;39.47;;
12601;SDS011;30282;16.436;99.370;2023-04-24T13:15:50;52.00;;;42.10;;
12601;SDS011;30282;16.436;99.370;2023-04-24T13:18:21;52.93;;;42.00;;
12601;SDS011;30282;16.436;99.370;2023-04-24T13:20:54;54.50;;;40.63;;
12601;SDS011;30282;16.436;99.370;2023-04-24T13:23:24;52.43;;;38.17;;
12601;SDS011;30282;16.436;99.370;2023-04-24T13:25:58;60.10;;;42.67;;
12601;SDS011;30282;16.436;99.370;2023-04-24T13:28:29;65.90;;;44.60;;
12601;SDS011;30282;16.436;99.370;2023-04-24T13:31:01;59.67;;;43.50;;
12601;SDS011;30282;16.436;99.370;2023-04-24T13:33:35;69.30;;;45.93;;
12601;SDS011;30282;16.436;99.370;2023-04-24T13:36:07;62.20;;;45.50;;
12601;SDS011;30282;16.436;99.370;2023-04-24T13:38:36;73.67;;;46.00;;
12601;SDS011;30282;16.436;99.370;2023-04-24T13:41:06;62.03;;;42.93;;
12601;SDS011;30282;16.436;99.370;2023-04-24T13:43:37;57.80;;;42.93;;
12601;SDS011;30282;16.436;99.370;2023-04-24T13:46:07;54.80;;;40.47;;
12601;SDS011;30282;16.436;99.370;2023-04-24T13:48:36;53.70;;;40.93;;
12601;SDS011;30282;16.436;99.370;2023-04-24T13:51:05;49.33;;;40.30;;
12601;SDS011;30282;16.436;99.370;2023-04-24T13:53:35;54.50;;;40.83;;
12601;SDS011;30282;16.436;99.370;2023-04-24T13:56:07;55.57;;;42.33;;
12601;SDS011;30282;16.436;99.370;2023-04-24T13:58:39;51.40;;;41.10;;
12601;SDS011;30282;16.436;99.370;2023-04-24T14:01:11;51.83;;;41.20;;
12601;SDS011;30282;16.436;99.370;2023-04-24T14:03:41;58.50;;;44.07;;
12601;SDS011;30282;16.436;99.370;2023-04-24T14:06:13;66.63;;;44.97;;
12601;SDS011;30282;16.436;99.370;2023-04-24T14:08:43;65.57;;;45.37;;
12601;SDS011;30282;16.436;99.370;2023-04-24T14:11:12;61.97;;;46.67;;
12601;SDS011;30282;16.436;99.370;2023-04-24T14:13:43;70.00;;;50.70;;
12601;SDS011;30282;16.436;99.370;2023-04-24T14:16:13;86.87;;;53.67;;
12601;SDS011;30282;16.436;99.370;2023-04-24T14:18:42;93.40;;;54.70;;
12601;SDS011;30282;16.436;99.370;2023-04-24T14:21:11;78.03;;;53.40;;
12601;SDS011;30282;16.436;99.370;2023-04-24T14:23:41;83.13;;;51.90;;
12601;SDS011;30282;16.436;99.370;2023-04-24T14:26:11;62.53;;;47.47;;
12601;SDS011;30282;16.436;99.370;2023-04-24T14:28:40;58.17;;;44.53;;
12601;SDS011;30282;16.436;99.370;2023-04-24T14:31:13;63.40;;;45.80;;
12601;SDS011;30282;16.436;99.370;2023-04-24T14:33:43;59.53;;;46.70;;